createdAt,value
2018-04-18T00:01:48.854Z,14.77
2018-04-18T00:04:16.337Z,12.70
2018-04-18T00:06:43.807Z,14.10
2018-04-18T00:09:11.298Z,15.03
2018-04-18T00:11:38.768Z,13.70
2018-04-18T00:14:07.025Z,13.30
2018-04-18T00:16:35.260Z,12.80
2018-04-18T00:19:02.744Z,14.23
2018-04-18T00:21:30.207Z,15.60
2018-04-18T00:23:58.468Z,15.70
2018-04-18T00:26:25.933Z,16.03
2018-04-18T00:28:53.422Z,14.67
2018-04-18T00:31:21.659Z,13.87
2018-04-18T00:33:49.143Z,14.77
2018-04-18T00:36:17.426Z,15.60
2018-04-18T00:38:46.411Z,14.13
2018-04-18T00:41:13.888Z,14.03
2018-04-18T00:43:42.143Z,14.47
2018-04-18T00:46:09.616Z,13.40
2018-04-18T00:48:37.868Z,13.37
2018-04-18T00:51:06.119Z,11.97
2018-04-18T00:53:33.607Z,11.87
2018-04-18T00:56:01.283Z,14.07
2018-04-18T00:58:28.736Z,11.80
2018-04-18T01:00:56.214Z,13.33
2018-04-18T01:03:23.676Z,13.67
2018-04-18T01:05:51.173Z,13.23
2018-04-18T01:08:18.660Z,14.43
2018-04-18T01:10:46.151Z,12.47
2018-04-18T01:13:13.620Z,14.17
2018-04-18T01:15:41.099Z,13.10
2018-04-18T01:18:08.588Z,14.23
2018-04-18T01:20:36.063Z,14.67
2018-04-18T01:23:04.571Z,13.23
2018-04-18T01:25:32.060Z,13.17
2018-04-18T01:27:59.528Z,12.37
2018-04-18T01:30:27.018Z,13.33
2018-04-18T01:32:55.270Z,13.30
2018-04-18T01:35:22.764Z,14.33
2018-04-18T01:37:50.248Z,14.43
2018-04-18T01:40:17.740Z,15.13
2018-04-18T01:42:45.220Z,14.23
2018-04-18T01:45:13.487Z,14.23
2018-04-18T01:47:40.970Z,13.93
2018-04-18T01:50:08.447Z,14.73
2018-04-18T01:52:35.931Z,13.30
2018-04-18T01:55:03.519Z,12.13
2018-04-18T01:57:31.023Z,12.33
2018-04-18T01:59:58.496Z,11.07
2018-04-18T02:02:25.991Z,11.53
2018-04-18T02:04:53.478Z,11.10
2018-04-18T02:07:20.948Z,10.37
2018-04-18T02:09:48.433Z,10.60
2018-04-18T02:12:15.923Z,10.83
2018-04-18T02:14:44.164Z,10.20
2018-04-18T02:17:11.687Z,10.43
2018-04-18T02:19:39.161Z,9.60
2018-04-18T02:22:06.666Z,10.00
2018-04-18T02:24:34.139Z,9.97
2018-04-18T02:27:02.380Z,9.67
2018-04-18T02:29:29.856Z,8.50
2018-04-18T02:31:58.092Z,9.53
2018-04-18T02:34:25.572Z,9.47
2018-04-18T02:36:53.048Z,9.43
2018-04-18T02:39:21.366Z,9.10
2018-04-18T02:41:48.832Z,8.60
2018-04-18T02:44:16.327Z,9.70
2018-04-18T02:46:43.794Z,8.30
2018-04-18T02:49:12.036Z,8.63
2018-04-18T02:51:39.519Z,9.73
2018-04-18T02:54:07.852Z,8.80
2018-04-18T02:56:35.320Z,8.70
2018-04-18T02:59:02.802Z,8.80
2018-04-18T03:01:30.263Z,7.87
2018-04-18T03:03:57.740Z,8.90
2018-04-18T03:06:26.073Z,9.80
2018-04-18T03:08:53.624Z,9.50
2018-04-18T03:11:21.087Z,9.93
2018-04-18T03:13:48.570Z,8.37
2018-04-18T03:16:16.814Z,8.67
2018-04-18T03:18:44.294Z,7.90
2018-04-18T03:21:11.763Z,8.33
2018-04-18T03:23:39.223Z,8.40
2018-04-18T03:26:07.000Z,7.50
2018-04-18T03:28:35.238Z,8.00
2018-04-18T03:31:02.727Z,8.67
2018-04-18T03:33:30.950Z,7.50
2018-04-18T03:35:58.469Z,8.40
2018-04-18T03:38:25.939Z,8.20
2018-04-18T03:40:53.418Z,9.00
2018-04-18T03:43:20.903Z,8.73
2018-04-18T03:45:48.383Z,8.23
2018-04-18T03:48:16.620Z,8.77
2018-04-18T03:50:44.128Z,8.30
2018-04-18T03:53:12.361Z,7.63
2018-04-18T03:55:39.960Z,9.30
2018-04-18T03:58:08.447Z,8.17
2018-04-18T04:00:36.684Z,9.53
2018-04-18T04:03:04.169Z,8.70
2018-04-18T04:05:32.404Z,7.90
2018-04-18T04:07:59.877Z,8.03
2018-04-18T04:10:27.509Z,8.90
2018-04-18T04:12:54.995Z,8.47
2018-04-18T04:15:22.468Z,8.37
2018-04-18T04:18:02.754Z,7.93
2018-04-18T04:20:42.089Z,7.37
2018-04-18T04:23:22.291Z,8.00
2018-04-18T04:25:49.756Z,8.27
2018-04-18T04:28:17.250Z,7.77
2018-04-18T04:30:45.681Z,7.73
2018-04-18T04:33:13.194Z,8.60
2018-04-18T04:35:40.682Z,9.37
2018-04-18T04:38:08.168Z,8.80
2018-04-18T04:40:35.639Z,8.30
2018-04-18T04:43:03.108Z,9.30
2018-04-18T04:45:31.349Z,8.27
2018-04-18T04:47:58.851Z,8.07
2018-04-18T04:50:27.222Z,9.10
2018-04-18T04:52:55.462Z,8.47
2018-04-18T04:55:22.950Z,8.50
2018-04-18T04:57:51.183Z,8.30
2018-04-18T05:00:18.779Z,9.17
2018-04-18T05:02:46.785Z,8.70
2018-04-18T05:05:14.350Z,8.20
2018-04-18T05:07:41.820Z,8.30
2018-04-18T05:10:09.697Z,8.93
2018-04-18T05:12:37.160Z,7.57
2018-04-18T05:15:04.639Z,8.40
2018-04-18T05:17:32.121Z,8.43
2018-04-18T05:20:00.355Z,9.53
2018-04-18T05:22:27.863Z,8.43
2018-04-18T05:24:56.652Z,8.73
2018-04-18T05:27:24.127Z,9.37
2018-04-18T05:29:51.599Z,9.10
2018-04-18T05:32:19.077Z,9.67
2018-04-18T05:34:46.546Z,8.93
2018-04-18T05:37:14.833Z,8.73
2018-04-18T05:39:42.266Z,9.43
2018-04-18T05:42:09.738Z,8.33
2018-04-18T05:44:37.980Z,9.97
2018-04-18T05:47:05.464Z,9.30
2018-04-18T05:49:32.935Z,8.47
2018-04-18T05:52:01.176Z,8.70
2018-04-18T05:54:28.663Z,8.27
2018-04-18T05:56:56.148Z,7.90
2018-04-18T05:59:23.625Z,8.03
2018-04-18T06:01:51.111Z,8.73
2018-04-18T06:04:18.613Z,8.80
2018-04-18T06:06:46.839Z,8.90
2018-04-18T06:09:14.333Z,8.53
2018-04-18T06:11:41.793Z,9.70
2018-04-18T06:14:10.050Z,8.80
2018-04-18T06:16:37.513Z,8.63
2018-04-18T06:19:04.999Z,8.27
2018-04-18T06:21:32.456Z,7.67
2018-04-18T06:23:59.950Z,7.50
2018-04-18T06:26:27.435Z,7.40
2018-04-18T06:28:54.927Z,6.90
2018-04-18T06:31:22.415Z,7.37
2018-04-18T06:33:49.873Z,7.60
2018-04-18T06:36:17.380Z,8.50
2018-04-18T06:38:44.847Z,8.10
2018-04-18T06:41:13.325Z,7.20
2018-04-18T06:43:41.583Z,6.73
2018-04-18T06:46:09.128Z,6.93
2018-04-18T06:48:38.096Z,7.00
2018-04-18T06:51:05.574Z,7.17
2018-04-18T06:53:33.067Z,7.53
2018-04-18T06:56:01.352Z,6.77
2018-04-18T06:58:28.893Z,7.30
2018-04-18T07:00:56.388Z,7.33
2018-04-18T07:03:23.893Z,7.33
2018-04-18T07:05:51.365Z,7.07
2018-04-18T07:08:18.844Z,8.20
2018-04-18T07:10:47.088Z,7.63
2018-04-18T07:13:14.953Z,7.40
2018-04-18T07:15:42.448Z,8.37
2018-04-18T07:18:09.929Z,7.87
2018-04-18T07:20:37.409Z,8.20
2018-04-18T07:23:04.905Z,8.70
2018-04-18T07:25:33.160Z,9.37
2018-04-18T07:28:00.643Z,8.63
2018-04-18T07:30:28.896Z,8.63
2018-04-18T07:32:56.566Z,9.07
2018-04-18T07:35:24.827Z,8.80
2018-04-18T07:37:52.308Z,9.17
2018-04-18T07:40:20.559Z,8.77
2018-04-18T07:42:48.809Z,8.27
2018-04-18T07:45:16.362Z,8.77
2018-04-18T07:47:43.876Z,9.50
2018-04-18T07:50:12.121Z,9.33
2018-04-18T07:52:39.618Z,8.80
2018-04-18T07:55:07.102Z,8.43
2018-04-18T07:57:34.608Z,9.00
2018-04-18T08:00:02.074Z,7.90
2018-04-18T08:02:30.836Z,8.30
2018-04-18T08:04:58.328Z,7.40
2018-04-18T08:07:26.584Z,8.50
2018-04-18T08:09:54.071Z,9.27
2018-04-18T08:12:21.707Z,8.20
2018-04-18T08:14:49.976Z,8.00
2018-04-18T08:17:17.716Z,8.07
2018-04-18T08:19:45.213Z,7.47
2018-04-18T08:22:13.455Z,7.80
2018-04-18T08:24:41.136Z,9.07
2018-04-18T08:27:08.605Z,7.90
2018-04-18T08:29:36.884Z,8.37
2018-04-18T08:32:05.140Z,8.40
2018-04-18T08:34:32.634Z,8.47
2018-04-18T08:37:00.140Z,7.87
2018-04-18T08:39:27.668Z,9.30
2018-04-18T08:41:55.137Z,8.80
2018-04-18T08:44:22.804Z,8.00
2018-04-18T08:46:50.321Z,8.33
2018-04-18T08:49:18.700Z,8.07
2018-04-18T08:51:46.191Z,9.60
2018-04-18T08:54:13.675Z,9.40
2018-04-18T08:56:41.206Z,10.03
2018-04-18T08:59:08.726Z,11.23
2018-04-18T09:01:37.210Z,9.63
2018-04-18T09:04:05.450Z,9.00
2018-04-18T09:06:32.928Z,9.70
2018-04-18T09:09:01.197Z,10.00
2018-04-18T09:11:29.455Z,9.30
2018-04-18T09:13:56.928Z,9.63
2018-04-18T09:16:25.209Z,9.60
2018-04-18T09:18:53.467Z,10.37
2018-04-18T09:21:21.724Z,9.77
2018-04-18T09:23:49.272Z,10.23
2018-04-18T09:26:16.800Z,10.33
2018-04-18T09:28:44.292Z,10.63
2018-04-18T09:31:11.826Z,10.80
2018-04-18T09:33:39.316Z,9.90
2018-04-18T09:36:06.822Z,10.73
2018-04-18T09:38:34.323Z,10.20
2018-04-18T09:41:01.824Z,10.80
2018-04-18T09:43:30.081Z,10.47
2018-04-18T09:45:57.564Z,10.57
2018-04-18T09:48:25.945Z,9.50
2018-04-18T09:50:54.200Z,11.33
2018-04-18T09:53:21.792Z,9.97
2018-04-18T09:55:49.345Z,10.93
2018-04-18T09:58:16.894Z,12.47
2018-04-18T10:00:50.963Z,11.93
2018-04-18T10:03:18.574Z,10.77
2018-04-18T10:05:46.063Z,12.80
2018-04-18T10:08:13.564Z,12.50
2018-04-18T10:10:41.062Z,12.53
2018-04-18T10:13:08.536Z,12.97
2018-04-18T10:15:36.014Z,12.63
2018-04-18T10:18:03.513Z,12.23
2018-04-18T10:20:31.908Z,13.37
2018-04-18T10:22:59.487Z,12.90
2018-04-18T10:25:27.723Z,13.20
2018-04-18T10:27:55.955Z,12.20
2018-04-18T10:30:23.479Z,12.70
2018-04-18T10:32:50.972Z,12.73
2018-04-18T10:35:18.452Z,12.90
2018-04-18T10:37:45.921Z,13.43
2018-04-18T10:40:14.181Z,14.60
2018-04-18T10:42:41.656Z,12.93
2018-04-18T10:45:09.937Z,11.53
2018-04-18T10:47:37.432Z,12.03
2018-04-18T10:50:04.911Z,10.90
2018-04-18T10:52:32.389Z,10.97
2018-04-18T10:54:59.873Z,11.13
2018-04-18T10:57:28.126Z,10.83
2018-04-18T10:59:55.591Z,11.10
2018-04-18T11:02:23.883Z,11.93
2018-04-18T11:04:52.124Z,12.37
2018-04-18T11:07:19.657Z,11.40
2018-04-18T11:09:47.319Z,11.50
2018-04-18T11:12:14.799Z,11.10
2018-04-18T11:14:42.303Z,11.00
2018-04-18T11:17:10.569Z,12.70
2018-04-18T11:19:39.180Z,10.93
2018-04-18T11:22:06.739Z,11.10
2018-04-18T11:24:34.411Z,11.10
2018-04-18T11:27:01.995Z,12.20
2018-04-18T11:29:29.434Z,11.17
2018-04-18T11:31:56.931Z,10.83
2018-04-18T11:34:25.177Z,11.90
2018-04-18T11:36:52.672Z,12.50
2018-04-18T11:39:20.942Z,12.70
2018-04-18T11:41:48.415Z,12.20
2018-04-18T11:44:15.937Z,13.77
2018-04-18T11:46:43.415Z,12.90
2018-04-18T11:49:10.900Z,12.07
2018-04-18T11:51:39.152Z,13.20
2018-04-18T11:54:07.411Z,12.40
2018-04-18T11:56:34.885Z,12.50
2018-04-18T11:59:03.145Z,12.83
2018-04-18T12:01:30.648Z,13.07
2018-04-18T12:03:58.175Z,12.77
2018-04-18T12:06:25.845Z,12.53
2018-04-18T12:08:54.116Z,14.00
2018-04-18T12:11:22.368Z,13.57
2018-04-18T12:13:49.852Z,12.90
2018-04-18T12:16:18.102Z,12.30
2018-04-18T12:18:45.587Z,12.67
2018-04-18T12:21:13.840Z,11.90
2018-04-18T12:23:41.311Z,12.00
2018-04-18T12:26:09.556Z,11.67
2018-04-18T12:28:37.043Z,12.53
2018-04-18T12:31:05.298Z,12.17
2018-04-18T12:33:32.855Z,11.70
2018-04-18T12:36:00.370Z,12.27
2018-04-18T12:38:28.025Z,12.77
2018-04-18T12:40:55.526Z,12.27
2018-04-18T12:43:23.112Z,12.10
2018-04-18T12:45:51.389Z,11.73
2018-04-18T12:48:19.653Z,11.17
2018-04-18T12:50:47.919Z,11.30
2018-04-18T12:53:15.404Z,12.30
2018-04-18T12:55:43.691Z,11.30
2018-04-18T12:58:11.162Z,12.00
2018-04-18T13:00:38.674Z,11.40
2018-04-18T13:03:06.951Z,11.80
2018-04-18T13:05:34.444Z,12.87
2018-04-18T13:08:01.952Z,10.93
2018-04-18T13:10:29.437Z,11.50
2018-04-18T13:12:57.752Z,10.20
2018-04-18T13:15:25.371Z,9.37
2018-04-18T13:17:53.623Z,9.40
2018-04-18T13:20:21.140Z,10.00
2018-04-18T13:22:48.628Z,9.50
2018-04-18T13:25:16.481Z,9.70
2018-04-18T13:27:43.937Z,9.70
2018-04-18T13:30:11.412Z,8.50
2018-04-18T13:32:38.893Z,9.23
2018-04-18T13:35:06.367Z,7.23
2018-04-18T13:37:34.610Z,6.47
2018-04-18T13:40:03.613Z,8.20
2018-04-18T13:42:31.186Z,7.00
2018-04-18T13:44:59.423Z,7.47
2018-04-18T13:47:27.149Z,6.43
2018-04-18T13:49:54.613Z,6.00
2018-04-18T13:52:22.103Z,6.07
2018-04-18T13:54:49.610Z,5.10
2018-04-18T13:57:17.135Z,6.13
2018-04-18T13:59:44.614Z,5.10
2018-04-18T14:02:12.901Z,5.03
2018-04-18T14:04:40.562Z,4.80
2018-04-18T14:07:12.301Z,5.20
2018-04-18T14:09:39.824Z,4.20
2018-04-18T14:12:07.379Z,4.40
2018-04-18T14:14:34.940Z,4.60
2018-04-18T14:17:02.431Z,4.80
2018-04-18T14:19:31.063Z,6.03
2018-04-18T14:21:58.536Z,5.00
2018-04-18T14:24:26.377Z,4.77
2018-04-18T14:26:54.412Z,5.37
2018-04-18T14:29:21.922Z,4.20
2018-04-18T14:31:49.428Z,4.37
2018-04-18T14:34:16.907Z,5.23
2018-04-18T14:36:45.205Z,3.63
2018-04-18T14:39:12.844Z,4.17
2018-04-18T14:41:40.351Z,5.10
2018-04-18T14:44:08.000Z,4.67
2018-04-18T14:46:35.502Z,4.30
2018-04-18T14:49:03.756Z,5.10
2018-04-18T14:51:31.247Z,5.23
2018-04-18T14:53:59.489Z,4.73
2018-04-18T14:56:27.018Z,5.30
2018-04-18T14:58:54.786Z,4.90
2018-04-18T15:01:22.269Z,5.43
2018-04-18T15:03:49.753Z,4.50
2018-04-18T15:06:17.508Z,4.27
2018-04-18T15:08:45.800Z,4.10
2018-04-18T15:11:14.052Z,4.07
2018-04-18T15:13:41.540Z,4.03
2018-04-18T15:16:09.783Z,3.70
2018-04-18T15:18:37.244Z,3.50
2018-04-18T15:21:04.748Z,3.80
2018-04-18T15:23:32.211Z,4.00
2018-04-18T15:25:59.690Z,4.40
2018-04-18T15:28:27.208Z,4.17
2018-04-18T15:30:54.671Z,4.70
2018-04-18T15:33:22.156Z,4.13
2018-04-18T15:35:50.073Z,3.83
2018-04-18T15:38:17.674Z,3.60
2018-04-18T15:40:45.209Z,4.40
2018-04-18T15:43:12.700Z,3.40
2018-04-18T15:45:40.180Z,3.97
2018-04-18T15:48:07.699Z,3.43
2018-04-18T15:50:35.183Z,3.93
2018-04-18T15:53:02.808Z,4.13
2018-04-18T15:55:31.108Z,3.53
2018-04-18T15:57:58.635Z,3.70
2018-04-18T16:00:26.960Z,3.10
2018-04-18T16:02:54.524Z,2.97
2018-04-18T16:05:21.998Z,3.40
2018-04-18T16:07:50.353Z,2.90
2018-04-18T16:10:18.033Z,3.00
2018-04-18T16:12:45.628Z,3.63
2018-04-18T16:15:13.351Z,3.70
2018-04-18T16:17:41.944Z,3.77
2018-04-18T16:20:09.556Z,3.27
2018-04-18T16:22:37.179Z,2.83
2018-04-18T16:25:04.709Z,3.87
2018-04-18T16:27:33.703Z,3.13
2018-04-18T16:30:01.167Z,3.10
2018-04-18T16:32:28.898Z,3.10
2018-04-18T16:34:56.683Z,3.00
2018-04-18T16:37:24.416Z,2.67
2018-04-18T16:39:51.923Z,3.40
2018-04-18T16:42:19.470Z,2.87
2018-04-18T16:44:47.442Z,3.13
2018-04-18T16:47:14.917Z,2.63
2018-04-18T16:49:43.178Z,3.20
2018-04-18T16:52:10.673Z,3.20
2018-04-18T16:54:38.170Z,3.10
2018-04-18T16:57:06.519Z,2.93
2018-04-18T16:59:34.003Z,2.90
2018-04-18T17:02:01.514Z,3.00
2018-04-18T17:04:30.543Z,2.80
2018-04-18T17:06:58.218Z,3.83
2018-04-18T17:09:25.685Z,3.10
2018-04-18T17:11:53.278Z,3.40
2018-04-18T17:14:20.751Z,2.73
2018-04-18T17:16:48.305Z,3.23
2018-04-18T17:19:15.871Z,3.13
2018-04-18T17:21:43.557Z,3.40
2018-04-18T17:24:11.035Z,3.27
2018-04-18T17:26:38.585Z,3.60
2018-04-18T17:29:06.173Z,3.57
2018-04-18T17:31:35.129Z,2.40
2018-04-18T17:34:02.654Z,4.00
2018-04-18T17:36:31.413Z,3.07
2018-04-18T17:38:59.706Z,2.90
2018-04-18T17:41:27.977Z,3.50
2018-04-18T17:43:55.533Z,4.43
2018-04-18T17:46:23.162Z,4.57
2018-04-18T17:48:50.654Z,4.60
2018-04-18T17:51:18.999Z,3.60
2018-04-18T17:53:46.470Z,3.37
2018-04-18T17:56:14.007Z,3.63
2018-04-18T17:58:41.530Z,3.00
2018-04-18T18:01:09.031Z,3.77
2018-04-18T18:03:36.565Z,3.83
2018-04-18T18:06:04.085Z,3.57
2018-04-18T18:08:32.098Z,3.27
2018-04-18T18:11:00.457Z,3.80
2018-04-18T18:13:28.046Z,3.20
2018-04-18T18:15:55.476Z,3.10
2018-04-18T18:18:23.978Z,3.83
2018-04-18T18:20:51.486Z,3.30
2018-04-18T18:23:19.767Z,4.27
2018-04-18T18:25:48.026Z,3.60
2018-04-18T18:28:15.488Z,3.87
2018-04-18T18:30:42.998Z,3.87
2018-04-18T18:33:10.465Z,3.47
2018-04-18T18:35:39.038Z,4.00
2018-04-18T18:38:06.937Z,3.50
2018-04-18T18:40:34.407Z,4.53
2018-04-18T18:43:01.913Z,3.63
2018-04-18T18:45:29.412Z,3.57
2018-04-18T18:48:01.109Z,3.40
2018-04-18T18:50:28.721Z,4.00
2018-04-18T18:52:56.516Z,5.03
2018-04-18T18:55:24.025Z,6.53
2018-04-18T18:57:52.170Z,5.90
2018-04-18T19:00:19.754Z,6.60
2018-04-18T19:02:47.265Z,7.30
2018-04-18T19:05:15.481Z,6.20
2018-04-18T19:07:42.985Z,5.07
2018-04-18T19:10:10.524Z,6.03
2018-04-18T19:12:38.062Z,4.70
2018-04-18T19:15:05.826Z,5.07
2018-04-18T19:17:34.924Z,4.30
2018-04-18T19:20:02.430Z,5.90
2018-04-18T19:22:29.960Z,5.87
2018-04-18T19:24:57.480Z,5.40
2018-04-18T19:27:24.988Z,6.10
2018-04-18T19:29:52.835Z,5.87
2018-04-18T19:32:20.317Z,6.97
2018-04-18T19:34:48.640Z,5.30
2018-04-18T19:37:16.178Z,6.50
2018-04-18T19:39:43.697Z,8.40
2018-04-18T19:42:11.179Z,9.40
2018-04-18T19:44:39.431Z,10.50
2018-04-18T19:47:06.929Z,10.60
2018-04-18T19:49:34.552Z,11.37
2018-04-18T19:52:02.093Z,11.50
2018-04-18T19:54:29.691Z,12.17
2018-04-18T19:56:57.587Z,12.10
2018-04-18T19:59:24.936Z,12.30
2018-04-18T20:01:52.426Z,12.03
2018-04-18T20:04:19.918Z,13.33
2018-04-18T20:06:48.528Z,12.83
2018-04-18T20:09:16.788Z,13.37
2018-04-18T20:11:45.042Z,13.50
2018-04-18T20:14:12.616Z,14.17
2018-04-18T20:16:40.938Z,13.90
2018-04-18T20:19:08.513Z,13.07
2018-04-18T20:21:36.795Z,14.07
2018-04-18T20:24:04.279Z,13.90
2018-04-18T20:26:33.274Z,13.77
2018-04-18T20:29:01.508Z,13.87
2018-04-18T20:31:29.023Z,14.37
2018-04-18T20:33:57.249Z,13.57
2018-04-18T20:36:24.728Z,13.90
2018-04-18T20:38:52.284Z,13.80
2018-04-18T20:41:19.838Z,13.83
2018-04-18T20:43:47.320Z,13.00
2018-04-18T20:46:15.565Z,13.83
2018-04-18T20:48:43.053Z,13.10
2018-04-18T20:51:11.323Z,14.47
2018-04-18T20:53:39.557Z,15.17
2018-04-18T20:56:07.038Z,14.90
2018-04-18T20:58:34.501Z,15.60
2018-04-18T21:01:01.979Z,13.80
2018-04-18T21:03:30.214Z,14.80
2018-04-18T21:05:57.851Z,15.20
2018-04-18T21:08:25.308Z,12.90
2018-04-18T21:10:52.780Z,14.80
2018-04-18T21:13:20.265Z,14.90
2018-04-18T21:15:47.754Z,14.27
2018-04-18T21:18:16.004Z,16.37
2018-04-18T21:20:43.626Z,13.90
2018-04-18T21:23:11.108Z,14.00
2018-04-18T21:25:38.952Z,16.00
2018-04-18T21:28:06.439Z,13.93
2018-04-18T21:30:34.668Z,14.93
2018-04-18T21:33:02.152Z,13.60
2018-04-18T21:35:29.627Z,11.77
2018-04-18T21:37:57.105Z,11.87
2018-04-18T21:40:25.356Z,12.80
2018-04-18T21:42:54.357Z,13.50
2018-04-18T21:45:22.634Z,12.03
2018-04-18T21:47:50.116Z,11.33
2018-04-18T21:50:18.373Z,12.27
2018-04-18T21:52:46.627Z,11.87
2018-04-18T21:55:14.115Z,10.20
2018-04-18T21:57:42.375Z,10.50
2018-04-18T22:00:11.415Z,10.80
2018-04-18T22:02:39.088Z,11.20
2018-04-18T22:05:06.603Z,10.80
2018-04-18T22:07:34.850Z,11.83
2018-04-18T22:10:02.324Z,9.37
2018-04-18T22:12:30.585Z,11.00
2018-04-18T22:14:58.059Z,9.63
2018-04-18T22:17:26.424Z,9.23
2018-04-18T22:19:53.864Z,8.80
2018-04-18T22:22:21.328Z,8.23
2018-04-18T22:24:48.816Z,9.47
2018-04-18T22:27:17.071Z,9.73
2018-04-18T22:29:45.472Z,8.20
2018-04-18T22:32:13.714Z,8.80
2018-04-18T22:34:42.789Z,9.20
2018-04-18T22:37:10.258Z,8.90
2018-04-18T22:39:37.772Z,9.10
2018-04-18T22:42:05.247Z,8.97
2018-04-18T22:44:32.766Z,8.57
2018-04-18T22:47:01.084Z,8.23
2018-04-18T22:49:28.567Z,8.30
2018-04-18T22:51:56.040Z,8.80
2018-04-18T22:54:23.555Z,7.60
2018-04-18T22:56:51.055Z,9.10
2018-04-18T22:59:18.524Z,8.57
2018-04-18T23:01:46.801Z,8.17
2018-04-18T23:04:14.263Z,8.83
2018-04-18T23:06:42.636Z,8.90
2018-04-18T23:09:11.015Z,8.30
2018-04-18T23:11:38.668Z,8.10
2018-04-18T23:14:06.076Z,8.70
2018-04-18T23:16:33.566Z,8.67
2018-04-18T23:19:01.067Z,8.40
2018-04-18T23:21:29.295Z,8.83
2018-04-18T23:23:56.836Z,8.07
2018-04-18T23:26:24.320Z,7.40
2018-04-18T23:28:52.577Z,8.03
2018-04-18T23:31:20.063Z,8.47
2018-04-18T23:33:47.523Z,9.90
2018-04-18T23:36:15.752Z,7.30
2018-04-18T23:38:43.647Z,7.53
2018-04-18T23:41:11.127Z,7.90
2018-04-18T23:43:38.604Z,8.00
2018-04-18T23:46:06.093Z,8.20
2018-04-18T23:48:33.574Z,8.33
2018-04-18T23:51:01.047Z,8.93
2018-04-18T23:53:28.739Z,8.90
2018-04-18T23:55:56.332Z,8.00
2018-04-18T23:58:23.851Z,8.63
